sensor_id;sensor_type;location;lat;lon;timestamp;P1;durP1;ratioP1;P2;durP2;ratioP2
17955;SDS011;27666;51.498;11.966;2023-11-21T17:01:26;10.03;;;5.83;;
17955;SDS011;27666;51.498;11.966;2023-11-21T17:04:14;9.80;;;5.73;;
17955;SDS011;27666;51.498;11.966;2023-11-21T17:07:03;8.03;;;6.10;;
17955;SDS011;27666;51.498;11.966;2023-11-21T17:09:53;7.77;;;5.67;;
17955;SDS011;27666;51.498;11.966;2023-11-21T17:12:39;9.63;;;6.03;;
17955;SDS011;27666;51.498;11.966;2023-11-21T17:15:26;7.13;;;4.87;;
17955;SDS011;27666;51.498;11.966;2023-11-21T17:18:14;9.37;;;6.27;;
17955;SDS011;27666;51.498;11.966;2023-11-21T17:21:01;9.47;;;6.23;;
17955;SDS011;27666;51.498;11.966;2023-11-21T17:23:48;8.23;;;5.57;;
17955;SDS011;27666;51.498;11.966;2023-11-21T17:26:35;7.13;;;5.10;;
17955;SDS011;27666;51.498;11.966;2023-11-21T17:29:22;7.23;;;4.83;;
17955;SDS011;27666;51.498;11.966;2023-11-21T17:32:10;8.87;;;5.67;;
17955;SDS011;27666;51.498;11.966;2023-11-21T17:35:01;7.80;;;4.70;;
17955;SDS011;27666;51.498;11.966;2023-11-21T17:37:49;7.17;;;5.20;;
17955;SDS011;27666;51.498;11.966;2023-11-21T17:40:37;6.93;;;4.90;;
17955;SDS011;27666;51.498;11.966;2023-11-21T17:43:25;7.63;;;4.57;;
17955;SDS011;27666;51.498;11.966;2023-11-21T17:46:17;6.00;;;4.37;;
17955;SDS011;27666;51.498;11.966;2023-11-21T17:49:05;7.33;;;4.67;;
17955;SDS011;27666;51.498;11.966;2023-11-21T17:51:54;6.93;;;4.40;;
17955;SDS011;27666;51.498;11.966;2023-11-21T17:54:41;6.50;;;4.27;;
17955;SDS011;27666;51.498;11.966;2023-11-21T17:57:28;5.83;;;4.63;;
17955;SDS011;27666;51.498;11.966;2023-11-21T18:00:16;5.83;;;4.30;;
17955;SDS011;27666;51.498;11.966;2023-11-21T18:03:04;7.03;;;4.23;;
17955;SDS011;27666;51.498;11.966;2023-11-21T18:05:51;6.87;;;4.50;;
17955;SDS011;27666;51.498;11.966;2023-11-21T18:08:40;8.10;;;5.50;;
17955;SDS011;27666;51.498;11.966;2023-11-21T18:11:27;7.33;;;4.97;;
17955;SDS011;27666;51.498;11.966;2023-11-21T18:14:14;6.10;;;4.30;;
17955;SDS011;27666;51.498;11.966;2023-11-21T18:17:01;5.87;;;4.30;;
17955;SDS011;27666;51.498;11.966;2023-11-21T18:19:48;5.63;;;4.10;;
17955;SDS011;27666;51.498;11.966;2023-11-21T18:22:39;7.43;;;4.57;;
17955;SDS011;27666;51.498;11.966;2023-11-21T18:25:27;6.53;;;4.93;;
17955;SDS011;27666;51.498;11.966;2023-11-21T18:28:14;9.00;;;4.67;;
17955;SDS011;27666;51.498;11.966;2023-11-21T18:31:04;7.50;;;4.27;;
17955;SDS011;27666;51.498;11.966;2023-11-21T18:33:52;6.30;;;4.33;;
17955;SDS011;27666;51.498;11.966;2023-11-21T18:36:41;6.30;;;4.03;;
17955;SDS011;27666;51.498;11.966;2023-11-21T18:39:30;6.30;;;4.40;;
17955;SDS011;27666;51.498;11.966;2023-11-21T18:42:17;5.73;;;4.10;;
17955;SDS011;27666;51.498;11.966;2023-11-21T18:45:05;6.83;;;4.57;;
17955;SDS011;27666;51.498;11.966;2023-11-21T18:47:53;7.73;;;5.40;;
17955;SDS011;27666;51.498;11.966;2023-11-21T18:50:41;6.47;;;4.70;;
17955;SDS011;27666;51.498;11.966;2023-11-21T18:53:27;6.17;;;4.50;;
17955;SDS011;27666;51.498;11.966;2023-11-21T18:56:20;7.10;;;4.77;;
17955;SDS011;27666;51.498;11.966;2023-11-21T18:59:10;8.70;;;4.50;;
17955;SDS011;27666;51.498;11.966;2023-11-21T19:01:59;6.80;;;4.87;;
17955;SDS011;27666;51.498;11.966;2023-11-21T19:04:46;6.10;;;4.47;;
17955;SDS011;27666;51.498;11.966;2023-11-21T19:07:33;6.20;;;4.73;;
17955;SDS011;27666;51.498;11.966;2023-11-21T19:10:21;7.27;;;4.47;;
17955;SDS011;27666;51.498;11.966;2023-11-21T19:13:17;8.27;;;5.23;;
17955;SDS011;27666;51.498;11.966;2023-11-21T19:16:08;8.80;;;4.93;;
17955;SDS011;27666;51.498;11.966;2023-11-21T19:18:55;9.60;;;6.13;;
17955;SDS011;27666;51.498;11.966;2023-11-21T19:21:43;8.83;;;5.30;;
17955;SDS011;27666;51.498;11.966;2023-11-21T19:24:33;10.83;;;4.90;;
17955;SDS011;27666;51.498;11.966;2023-11-21T19:27:19;8.77;;;4.67;;
17955;SDS011;27666;51.498;11.966;2023-11-21T19:30:07;6.37;;;4.50;;
17955;SDS011;27666;51.498;11.966;2023-11-21T19:32:57;8.07;;;5.13;;
17955;SDS011;27666;51.498;11.966;2023-11-21T19:35:50;9.33;;;5.30;;
17955;SDS011;27666;51.498;11.966;2023-11-21T19:38:37;9.57;;;5.03;;
17955;SDS011;27666;51.498;11.966;2023-11-21T19:41:24;13.23;;;5.77;;
17955;SDS011;27666;51.498;11.966;2023-11-21T19:44:12;9.00;;;5.47;;
17955;SDS011;27666;51.498;11.966;2023-11-21T19:47:01;7.77;;;5.70;;
17955;SDS011;27666;51.498;11.966;2023-11-21T19:49:49;11.27;;;5.93;;
17955;SDS011;27666;51.498;11.966;2023-11-21T19:52:39;10.73;;;5.67;;
17955;SDS011;27666;51.498;11.966;2023-11-21T19:55:26;10.93;;;5.50;;
17955;SDS011;27666;51.498;11.966;2023-11-21T19:58:13;7.50;;;4.90;;
17955;SDS011;27666;51.498;11.966;2023-11-21T20:01:02;10.83;;;5.00;;
17955;SDS011;27666;51.498;11.966;2023-11-21T20:03:49;12.43;;;6.07;;
17955;SDS011;27666;51.498;11.966;2023-11-21T20:06:40;9.30;;;5.43;;
17955;SDS011;27666;51.498;11.966;2023-11-21T20:09:38;10.37;;;5.67;;
17955;SDS011;27666;51.498;11.966;2023-11-21T20:12:24;11.60;;;5.77;;
17955;SDS011;27666;51.498;11.966;2023-11-21T20:15:11;10.07;;;5.00;;
17955;SDS011;27666;51.498;11.966;2023-11-21T20:17:58;10.67;;;5.50;;
17955;SDS011;27666;51.498;11.966;2023-11-21T20:20:45;7.80;;;4.77;;
17955;SDS011;27666;51.498;11.966;2023-11-21T20:23:34;7.33;;;4.57;;
17955;SDS011;27666;51.498;11.966;2023-11-21T20:26:22;11.17;;;5.27;;
17955;SDS011;27666;51.498;11.966;2023-11-21T20:29:10;7.73;;;5.23;;
17955;SDS011;27666;51.498;11.966;2023-11-21T20:31:57;9.20;;;5.10;;
17955;SDS011;27666;51.498;11.966;2023-11-21T20:34:43;7.63;;;4.90;;
17955;SDS011;27666;51.498;11.966;2023-11-21T20:37:32;7.90;;;5.47;;
17955;SDS011;27666;51.498;11.966;2023-11-21T20:40:21;8.73;;;5.33;;
17955;SDS011;27666;51.498;11.966;2023-11-21T20:43:12;8.47;;;5.20;;
17955;SDS011;27666;51.498;11.966;2023-11-21T20:45:59;7.67;;;5.23;;
17955;SDS011;27666;51.498;11.966;2023-11-21T20:48:46;7.50;;;5.37;;
17955;SDS011;27666;51.498;11.966;2023-11-21T20:51:35;9.80;;;6.73;;
17955;SDS011;27666;51.498;11.966;2023-11-21T20:54:22;9.53;;;6.30;;
17955;SDS011;27666;51.498;11.966;2023-11-21T20:57:10;9.03;;;5.60;;
17955;SDS011;27666;51.498;11.966;2023-11-21T20:59:57;8.97;;;5.77;;
17955;SDS011;27666;51.498;11.966;2023-11-21T21:02:43;14.77;;;6.57;;
17955;SDS011;27666;51.498;11.966;2023-11-21T21:05:32;8.17;;;5.40;;
17955;SDS011;27666;51.498;11.966;2023-11-21T21:08:20;12.17;;;7.17;;
17955;SDS011;27666;51.498;11.966;2023-11-21T21:11:07;11.30;;;6.73;;
17955;SDS011;27666;51.498;11.966;2023-11-21T21:13:56;13.60;;;7.90;;
17955;SDS011;27666;51.498;11.966;2023-11-21T21:16:43;18.23;;;8.17;;
17955;SDS011;27666;51.498;11.966;2023-11-21T21:19:29;15.20;;;8.53;;
17955;SDS011;27666;51.498;11.966;2023-11-21T21:22:17;15.60;;;8.30;;
17955;SDS011;27666;51.498;11.966;2023-11-21T21:25:07;16.30;;;8.50;;
17955;SDS011;27666;51.498;11.966;2023-11-21T21:27:57;20.23;;;9.03;;
17955;SDS011;27666;51.498;11.966;2023-11-21T21:30:46;15.90;;;8.37;;
